Poway, California
Current Conditions -  °F | °C
As of 5:55 AM on Tuesday 27 Jan 2015 (Local Time) from KNKX Reporting Station
Broken Clouds Broken Clouds  
Wind Chill: 54°   Ceiling: 7000
Heat Index: 54°   Visibility: 10mi
Dew Point: 49°   Wind: 3mph
Humidity: 83%   Direction: 80°E
Pressure: 30.15"   Gusts: NA
Location:  32.95°N, 117.04°W
Report Text: KNKX 271355Z 08003KT 10SM BKN070 12/09 A3015 RMK AO2 SLP205 T01220094
Loading
Personal Weather Stations






























Interactive Weather Map New forecast layout! Learn more

10-Day Weather Forecast

Advertisements
Track Severe Weather on mobile